createdAt,value
2022-10-31T06:15:42.587Z,1013.33
2022-10-31T06:25:42.714Z,1013.27
2022-10-31T06:35:42.668Z,1013.34
2022-10-31T06:45:42.729Z,1013.37
2022-10-31T06:55:42.726Z,1013.33
2022-10-31T07:05:42.637Z,1013.43
2022-10-31T07:15:42.758Z,1013.57
2022-10-31T07:25:42.701Z,1013.49
2022-10-31T07:35:42.703Z,1013.66
2022-10-31T07:45:42.685Z,1013.57
2022-10-31T07:55:42.661Z,1013.55
2022-10-31T08:05:42.594Z,1013.65
2022-10-31T08:15:42.730Z,1013.59
2022-10-31T08:25:42.912Z,1013.49
2022-10-31T08:35:42.814Z,1013.41
2022-10-31T08:45:43.014Z,1013.25
2022-10-31T08:55:43.184Z,1013.03
2022-10-31T09:05:43.149Z,1013.19
2022-10-31T09:15:43.178Z,1013.15
2022-10-31T09:25:47.577Z,1013.32
2022-10-31T09:35:43.077Z,1013.82
2022-10-31T09:45:43.211Z,1014.01
2022-10-31T09:55:43.114Z,1014.23
2022-10-31T10:05:43.222Z,1014.29
2022-10-31T10:15:43.222Z,1014.29
2022-10-31T10:25:43.137Z,1014.23
2022-10-31T10:35:43.206Z,1014.08
2022-10-31T10:45:43.262Z,1014.09
2022-10-31T10:55:43.146Z,1014.05
2022-10-31T11:05:43.179Z,1013.85
2022-10-31T11:15:43.157Z,1013.81
2022-10-31T11:25:43.202Z,1013.65
2022-10-31T11:35:43.251Z,1013.65
2022-10-31T11:45:43.301Z,1013.61
2022-10-31T11:55:43.210Z,1013.54
2022-10-31T12:05:43.156Z,1013.43
2022-10-31T12:15:43.107Z,1013.42
2022-10-31T12:25:43.262Z,1013.30
2022-10-31T12:35:43.421Z,1013.06
2022-10-31T12:45:43.300Z,1013.12
2022-10-31T12:55:43.178Z,1012.85
2022-10-31T13:05:43.246Z,1012.80
2022-10-31T13:15:43.244Z,1012.78
2022-10-31T13:25:43.213Z,1012.48
2022-10-31T13:35:43.285Z,1012.38
2022-10-31T13:45:43.195Z,1012.27
2022-10-31T13:55:43.228Z,1012.08
2022-10-31T14:05:43.347Z,1011.93
2022-10-31T14:15:43.606Z,1011.81
2022-10-31T14:25:43.340Z,1011.77
2022-10-31T14:35:43.424Z,1011.68
2022-10-31T14:45:43.387Z,1011.70
2022-10-31T14:55:43.307Z,1011.64
2022-10-31T15:05:43.378Z,1011.47
2022-10-31T15:15:45.925Z,1011.49
2022-10-31T15:25:43.413Z,1011.19
2022-10-31T15:35:43.367Z,1011.10
2022-10-31T15:45:43.401Z,1011.00
2022-10-31T15:55:43.518Z,1010.86
2022-10-31T16:05:43.338Z,1010.63
2022-10-31T16:15:43.443Z,1010.41
2022-10-31T16:25:43.515Z,1010.52
2022-10-31T16:35:43.500Z,1010.65
2022-10-31T16:45:43.438Z,1010.39
2022-10-31T16:55:43.497Z,1010.30
2022-10-31T17:05:43.516Z,1010.16
2022-10-31T17:15:43.458Z,1010.11
2022-10-31T17:25:43.517Z,1009.93
2022-10-31T17:35:43.442Z,1009.78
2022-10-31T17:45:43.525Z,1009.70
2022-10-31T17:55:43.477Z,1009.53
2022-10-31T18:05:43.443Z,1009.51
2022-10-31T18:15:43.527Z,1009.52
2022-10-31T18:25:43.607Z,1009.35
2022-10-31T18:35:43.652Z,1009.18
2022-10-31T18:45:46.954Z,1009.14
2022-10-31T18:55:47.253Z,1008.90
2022-10-31T19:05:43.629Z,1008.64
2022-10-31T19:15:43.706Z,1008.64
